sensor_id;sensor_type;location;lat;lon;timestamp;pressure;altitude;pressure_sealevel;temperature;humidity
29215;BME280;16252;49.816;7.964;2023-01-13T00:01:53;99415.53;;;12.65;68.15
29215;BME280;16252;49.816;7.964;2023-01-13T00:04:18;99392.69;;;12.51;68.09
29215;BME280;16252;49.816;7.964;2023-01-13T00:06:44;99404.38;;;12.60;68.25
29215;BME280;16252;49.816;7.964;2023-01-13T00:09:09;99386.03;;;12.55;68.24
29215;BME280;16252;49.816;7.964;2023-01-13T00:11:34;99395.63;;;12.57;68.00
29215;BME280;16252;49.816;7.964;2023-01-13T00:13:59;99398.28;;;12.67;67.83
29215;BME280;16252;49.816;7.964;2023-01-13T00:16:25;99373.47;;;12.55;68.02
29215;BME280;16252;49.816;7.964;2023-01-13T00:18:50;99384.88;;;12.67;68.01
29215;BME280;16252;49.816;7.964;2023-01-13T00:21:20;99390.22;;;12.77;67.80
29215;BME280;16252;49.816;7.964;2023-01-13T00:23:46;99392.06;;;12.76;67.99
29215;BME280;16252;49.816;7.964;2023-01-13T00:26:14;99376.00;;;12.67;67.95
29215;BME280;16252;49.816;7.964;2023-01-13T00:28:40;99371.59;;;12.66;68.08
29215;BME280;16252;49.816;7.964;2023-01-13T00:31:14;99391.59;;;12.81;68.05
29215;BME280;16252;49.816;7.964;2023-01-13T00:33:40;99397.56;;;12.75;67.71
29215;BME280;16252;49.816;7.964;2023-01-13T00:36:07;99388.50;;;12.76;67.94
29215;BME280;16252;49.816;7.964;2023-01-13T00:38:34;99362.88;;;12.64;67.99
29215;BME280;16252;49.816;7.964;2023-01-13T00:41:02;99367.63;;;12.70;67.96
29215;BME280;16252;49.816;7.964;2023-01-13T00:43:29;99367.19;;;12.74;67.89
29215;BME280;16252;49.816;7.964;2023-01-13T00:45:54;99344.75;;;12.66;67.82
29215;BME280;16252;49.816;7.964;2023-01-13T00:48:21;99322.78;;;12.52;67.84
29215;BME280;16252;49.816;7.964;2023-01-13T00:50:58;99356.69;;;12.81;67.71
29215;BME280;16252;49.816;7.964;2023-01-13T00:53:24;99349.13;;;12.76;67.94
29215;BME280;16252;49.816;7.964;2023-01-13T00:56:00;99323.28;;;12.66;67.73
29215;BME280;16252;49.816;7.964;2023-01-13T00:58:26;99328.13;;;12.62;67.64
29215;BME280;16252;49.816;7.964;2023-01-13T01:00:51;99306.97;;;12.49;67.85
29215;BME280;16252;49.816;7.964;2023-01-13T01:03:17;99341.34;;;12.73;67.84
29215;BME280;16252;49.816;7.964;2023-01-13T01:05:42;99325.97;;;12.66;67.87
29215;BME280;16252;49.816;7.964;2023-01-13T01:08:07;99344.72;;;12.75;67.90
29215;BME280;16252;49.816;7.964;2023-01-13T01:10:33;99315.84;;;12.60;67.61
29215;BME280;16252;49.816;7.964;2023-01-13T01:12:58;99338.81;;;12.72;67.88
29215;BME280;16252;49.816;7.964;2023-01-13T01:15:23;99328.38;;;12.69;67.90
29215;BME280;16252;49.816;7.964;2023-01-13T01:17:49;99330.19;;;12.68;67.64
29215;BME280;16252;49.816;7.964;2023-01-13T01:20:14;99334.72;;;12.68;68.00
29215;BME280;16252;49.816;7.964;2023-01-13T01:22:40;99308.22;;;12.55;67.92
29215;BME280;16252;49.816;7.964;2023-01-13T01:25:05;99304.69;;;12.54;67.89
29215;BME280;16252;49.816;7.964;2023-01-13T01:27:31;99318.22;;;12.63;67.90
29215;BME280;16252;49.816;7.964;2023-01-13T01:29:56;99323.44;;;12.64;67.80
29215;BME280;16252;49.816;7.964;2023-01-13T01:32:21;99330.91;;;12.70;67.70
29215;BME280;16252;49.816;7.964;2023-01-13T01:34:47;99294.25;;;12.51;67.74
29215;BME280;16252;49.816;7.964;2023-01-13T01:37:12;99314.25;;;12.67;67.67
29215;BME280;16252;49.816;7.964;2023-01-13T01:39:37;99315.94;;;12.68;67.70
29215;BME280;16252;49.816;7.964;2023-01-13T01:42:03;99325.00;;;12.67;67.70
29215;BME280;16252;49.816;7.964;2023-01-13T01:44:59;99301.41;;;12.61;67.52
29215;BME280;16252;49.816;7.964;2023-01-13T01:47:26;99300.47;;;12.52;67.87
29215;BME280;16252;49.816;7.964;2023-01-13T01:49:52;99314.00;;;12.60;67.68
29215;BME280;16252;49.816;7.964;2023-01-13T01:52:40;99302.41;;;12.60;67.47
29215;BME280;16252;49.816;7.964;2023-01-13T01:55:09;99322.31;;;12.67;67.52
29215;BME280;16252;49.816;7.964;2023-01-13T02:00:20;99274.78;;;12.49;67.50
29215;BME280;16252;49.816;7.964;2023-01-13T02:02:47;99298.91;;;12.59;67.47
29215;BME280;16252;49.816;7.964;2023-01-13T02:05:13;99313.69;;;12.63;67.64
29215;BME280;16252;49.816;7.964;2023-01-13T02:07:40;99286.22;;;12.51;67.65
29215;BME280;16252;49.816;7.964;2023-01-13T02:10:10;99298.47;;;12.64;67.72
29215;BME280;16252;49.816;7.964;2023-01-13T02:12:36;99275.22;;;12.45;67.64
29215;BME280;16252;49.816;7.964;2023-01-13T02:30:06;99299.44;;;12.63;67.33
29215;BME280;16252;49.816;7.964;2023-01-13T02:35:59;99275.03;;;12.56;67.72
29215;BME280;16252;49.816;7.964;2023-01-13T02:38:36;99269.81;;;12.54;67.82
29215;BME280;16252;49.816;7.964;2023-01-13T02:41:13;99287.41;;;12.67;67.86
29215;BME280;16252;49.816;7.964;2023-01-13T02:44:02;99253.72;;;12.54;67.80
29215;BME280;16252;49.816;7.964;2023-01-13T02:46:49;99263.09;;;12.68;67.78
29215;BME280;16252;49.816;7.964;2023-01-13T02:49:22;99267.94;;;12.65;67.64
29215;BME280;16252;49.816;7.964;2023-01-13T02:51:51;99260.41;;;12.68;67.91
29215;BME280;16252;49.816;7.964;2023-01-13T02:54:20;99239.69;;;12.61;67.91
29215;BME280;16252;49.816;7.964;2023-01-13T02:56:49;99238.72;;;12.62;67.90
29215;BME280;16252;49.816;7.964;2023-01-13T02:59:18;99242.53;;;12.59;67.85
29215;BME280;16252;49.816;7.964;2023-01-13T03:01:45;99222.13;;;12.48;67.83
29215;BME280;16252;49.816;7.964;2023-01-13T03:09:56;99242.19;;;12.72;67.78
29215;BME280;16252;49.816;7.964;2023-01-13T03:12:35;99216.84;;;12.56;67.44
29215;BME280;16252;49.816;7.964;2023-01-13T03:15:29;99227.63;;;12.74;67.39
29215;BME280;16252;49.816;7.964;2023-01-13T03:18:13;99230.31;;;12.74;67.45
29215;BME280;16252;49.816;7.964;2023-01-13T03:20:48;99202.72;;;12.54;67.91
29215;BME280;16252;49.816;7.964;2023-01-13T03:23:25;99230.44;;;12.73;67.96
29215;BME280;16252;49.816;7.964;2023-01-13T03:26:15;99233.84;;;12.75;67.55
29215;BME280;16252;49.816;7.964;2023-01-13T03:28:53;99221.88;;;12.69;67.61
29215;BME280;16252;49.816;7.964;2023-01-13T03:31:24;99206.41;;;12.53;67.77
29215;BME280;16252;49.816;7.964;2023-01-13T03:33:58;99212.31;;;12.57;67.58
29215;BME280;16252;49.816;7.964;2023-01-13T03:36:27;99195.56;;;12.45;67.78
29215;BME280;16252;49.816;7.964;2023-01-13T03:39:00;99211.00;;;12.43;67.65
29215;BME280;16252;49.816;7.964;2023-01-13T03:41:34;99208.44;;;12.42;67.85
29215;BME280;16252;49.816;7.964;2023-01-13T03:44:11;99205.06;;;12.40;67.95
29215;BME280;16252;49.816;7.964;2023-01-13T03:49:41;99202.09;;;12.33;67.91
29215;BME280;16252;49.816;7.964;2023-01-13T03:52:11;99207.34;;;12.34;68.18
29215;BME280;16252;49.816;7.964;2023-01-13T03:54:45;99212.53;;;12.46;68.12
29215;BME280;16252;49.816;7.964;2023-01-13T03:57:14;99205.63;;;12.43;68.29
29215;BME280;16252;49.816;7.964;2023-01-13T03:59:43;99190.09;;;12.37;68.25
29215;BME280;16252;49.816;7.964;2023-01-13T04:02:20;99191.34;;;12.43;68.21
29215;BME280;16252;49.816;7.964;2023-01-13T04:04:57;99186.16;;;12.41;67.98
29215;BME280;16252;49.816;7.964;2023-01-13T04:07:47;99193.97;;;12.52;67.95
29215;BME280;16252;49.816;7.964;2023-01-13T04:10:19;99141.63;;;12.21;68.16
29215;BME280;16252;49.816;7.964;2023-01-13T04:12:52;99200.06;;;12.54;68.25
29215;BME280;16252;49.816;7.964;2023-01-13T04:15:32;99190.31;;;12.53;67.96
29215;BME280;16252;49.816;7.964;2023-01-13T04:18:21;99143.09;;;12.33;67.74
29215;BME280;16252;49.816;7.964;2023-01-13T04:20:50;99185.09;;;12.52;68.21
29215;BME280;16252;49.816;7.964;2023-01-13T04:23:16;99195.28;;;12.48;67.92
29215;BME280;16252;49.816;7.964;2023-01-13T04:25:43;99174.31;;;12.34;68.02
29215;BME280;16252;49.816;7.964;2023-01-13T04:28:09;99185.84;;;12.44;68.20
29215;BME280;16252;49.816;7.964;2023-01-13T04:30:35;99178.94;;;12.42;67.98
29215;BME280;16252;49.816;7.964;2023-01-13T04:33:01;99131.38;;;12.06;68.13
29215;BME280;16252;49.816;7.964;2023-01-13T04:35:28;99163.31;;;12.27;68.28
29215;BME280;16252;49.816;7.964;2023-01-13T04:37:53;99174.31;;;12.34;68.19
29215;BME280;16252;49.816;7.964;2023-01-13T04:40:18;99171.94;;;12.31;68.41
29215;BME280;16252;49.816;7.964;2023-01-13T04:42:44;99155.88;;;12.21;68.62
29215;BME280;16252;49.816;7.964;2023-01-13T04:45:09;99137.28;;;12.10;68.67
29215;BME280;16252;49.816;7.964;2023-01-13T04:47:35;99177.00;;;12.34;68.88
29215;BME280;16252;49.816;7.964;2023-01-13T04:50:00;99172.38;;;12.26;68.83
29215;BME280;16252;49.816;7.964;2023-01-13T04:52:25;99143.03;;;12.15;69.02
29215;BME280;16252;49.816;7.964;2023-01-13T04:54:51;99141.09;;;12.07;68.99
29215;BME280;16252;49.816;7.964;2023-01-13T04:57:16;99176.03;;;12.25;68.86
29215;BME280;16252;49.816;7.964;2023-01-13T04:59:41;99179.00;;;12.22;68.92
29215;BME280;16252;49.816;7.964;2023-01-13T05:02:07;99148.75;;;12.02;68.92
29215;BME280;16252;49.816;7.964;2023-01-13T05:04:33;99159.03;;;12.07;69.18
29215;BME280;16252;49.816;7.964;2023-01-13T05:06:58;99153.44;;;12.00;69.13
29215;BME280;16252;49.816;7.964;2023-01-13T05:09:24;99177.25;;;12.03;69.16
29215;BME280;16252;49.816;7.964;2023-01-13T05:11:49;99204.91;;;12.04;69.16
29215;BME280;16252;49.816;7.964;2023-01-13T05:14:33;99242.16;;;12.07;69.77
29215;BME280;16252;49.816;7.964;2023-01-13T05:17:19;99246.25;;;12.01;70.37
29215;BME280;16252;49.816;7.964;2023-01-13T05:19:45;99231.72;;;11.84;70.29
29215;BME280;16252;49.816;7.964;2023-01-13T05:22:10;99232.03;;;11.81;69.97
29215;BME280;16252;49.816;7.964;2023-01-13T05:24:55;99250.66;;;11.92;69.43
29215;BME280;16252;49.816;7.964;2023-01-13T05:27:56;99236.66;;;11.79;68.92
29215;BME280;16252;49.816;7.964;2023-01-13T05:30:27;99253.31;;;11.83;69.41
29215;BME280;16252;49.816;7.964;2023-01-13T05:32:53;99247.13;;;11.73;68.88
29215;BME280;16252;49.816;7.964;2023-01-13T05:35:18;99246.84;;;11.66;68.83
29215;BME280;16252;49.816;7.964;2023-01-13T05:37:44;99288.00;;;11.75;69.14
29215;BME280;16252;49.816;7.964;2023-01-13T05:40:12;99279.84;;;11.66;69.43
29215;BME280;16252;49.816;7.964;2023-01-13T05:43:10;99295.63;;;11.69;69.31
29215;BME280;16252;49.816;7.964;2023-01-13T05:46:07;99295.22;;;11.64;69.28
29215;BME280;16252;49.816;7.964;2023-01-13T05:48:39;99308.19;;;11.59;69.56
29215;BME280;16252;49.816;7.964;2023-01-13T05:51:07;99311.00;;;11.48;69.51
29215;BME280;16252;49.816;7.964;2023-01-13T05:53:32;99325.13;;;11.50;69.66
29215;BME280;16252;49.816;7.964;2023-01-13T05:55:58;99320.88;;;11.38;69.47
29215;BME280;16252;49.816;7.964;2023-01-13T05:58:25;99302.50;;;11.23;69.53
29215;BME280;16252;49.816;7.964;2023-01-13T06:00:51;99333.53;;;11.36;69.75
29215;BME280;16252;49.816;7.964;2023-01-13T06:03:17;99319.00;;;11.28;69.71
29215;BME280;16252;49.816;7.964;2023-01-13T06:05:46;99322.69;;;11.27;69.78
29215;BME280;16252;49.816;7.964;2023-01-13T06:08:12;99315.63;;;11.26;69.92
29215;BME280;16252;49.816;7.964;2023-01-13T06:10:37;99296.28;;;11.13;70.19
29215;BME280;16252;49.816;7.964;2023-01-13T06:13:03;99331.00;;;11.34;70.29
29215;BME280;16252;49.816;7.964;2023-01-13T06:15:29;99335.09;;;11.38;70.29
29215;BME280;16252;49.816;7.964;2023-01-13T06:17:54;99273.31;;;11.11;70.34
29215;BME280;16252;49.816;7.964;2023-01-13T06:20:21;99312.66;;;11.39;70.33
29215;BME280;16252;49.816;7.964;2023-01-13T06:22:49;99309.03;;;11.40;70.22
29215;BME280;16252;49.816;7.964;2023-01-13T06:28:04;99305.09;;;11.35;69.28
29215;BME280;16252;49.816;7.964;2023-01-13T06:30:37;99283.94;;;11.22;69.26
29215;BME280;16252;49.816;7.964;2023-01-13T06:33:07;99283.94;;;11.22;69.14
29215;BME280;16252;49.816;7.964;2023-01-13T06:35:35;99278.56;;;11.22;69.01
29215;BME280;16252;49.816;7.964;2023-01-13T06:38:04;99276.84;;;11.11;68.88
29215;BME280;16252;49.816;7.964;2023-01-13T06:40:33;99289.78;;;11.06;68.98
29215;BME280;16252;49.816;7.964;2023-01-13T06:42:58;99269.66;;;11.02;69.22
29215;BME280;16252;49.816;7.964;2023-01-13T06:45:43;99271.91;;;10.97;69.49
29215;BME280;16252;49.816;7.964;2023-01-13T06:48:09;99303.09;;;11.37;68.49
29215;BME280;16252;49.816;7.964;2023-01-13T06:50:35;99294.19;;;11.17;69.22
29215;BME280;16252;49.816;7.964;2023-01-13T06:53:01;99271.75;;;11.08;69.20
29215;BME280;16252;49.816;7.964;2023-01-13T06:55:26;99294.75;;;11.20;69.47
29215;BME280;16252;49.816;7.964;2023-01-13T06:57:53;99269.94;;;11.09;69.74
29215;BME280;16252;49.816;7.964;2023-01-13T07:00:20;99316.31;;;11.28;69.37
29215;BME280;16252;49.816;7.964;2023-01-13T07:02:46;99309.56;;;11.24;69.09
29215;BME280;16252;49.816;7.964;2023-01-13T07:05:12;99280.91;;;11.05;68.87
29215;BME280;16252;49.816;7.964;2023-01-13T07:07:38;99290.66;;;11.06;68.82
29215;BME280;16252;49.816;7.964;2023-01-13T07:10:06;99320.00;;;11.27;68.52
29215;BME280;16252;49.816;7.964;2023-01-13T07:12:37;99319.13;;;11.17;68.42
29215;BME280;16252;49.816;7.964;2023-01-13T07:15:20;99288.09;;;10.95;68.25
29215;BME280;16252;49.816;7.964;2023-01-13T07:17:46;99321.06;;;11.05;67.93
29215;BME280;16252;49.816;7.964;2023-01-13T07:20:11;99342.38;;;11.07;68.05
29215;BME280;16252;49.816;7.964;2023-01-13T07:22:36;99330.91;;;10.95;68.16
29215;BME280;16252;49.816;7.964;2023-01-13T07:25:02;99315.66;;;10.86;68.21
29215;BME280;16252;49.816;7.964;2023-01-13T07:27:28;99326.22;;;10.88;68.11
29215;BME280;16252;49.816;7.964;2023-01-13T07:29:53;99323.00;;;10.84;67.75
29215;BME280;16252;49.816;7.964;2023-01-13T07:32:18;99332.75;;;10.95;67.92
29215;BME280;16252;49.816;7.964;2023-01-13T07:34:44;99337.09;;;10.96;67.79
29215;BME280;16252;49.816;7.964;2023-01-13T07:37:09;99353.72;;;10.90;67.79
29215;BME280;16252;49.816;7.964;2023-01-13T07:39:34;99354.66;;;10.89;67.54
29215;BME280;16252;49.816;7.964;2023-01-13T07:41:59;99339.13;;;10.73;67.56
29215;BME280;16252;49.816;7.964;2023-01-13T07:44:44;99341.94;;;10.71;67.80
29215;BME280;16252;49.816;7.964;2023-01-13T07:47:09;99360.25;;;10.76;67.48
29215;BME280;16252;49.816;7.964;2023-01-13T07:49:35;99362.75;;;10.68;67.60
29215;BME280;16252;49.816;7.964;2023-01-13T07:52:01;99380.25;;;10.72;67.88
29215;BME280;16252;49.816;7.964;2023-01-13T07:54:26;99370.06;;;10.66;67.87
29215;BME280;16252;49.816;7.964;2023-01-13T07:59:19;99399.25;;;10.69;67.99
29215;BME280;16252;49.816;7.964;2023-01-13T08:01:44;99410.53;;;10.72;68.38
29215;BME280;16252;49.816;7.964;2023-01-13T08:04:10;99365.34;;;10.48;68.38
29215;BME280;16252;49.816;7.964;2023-01-13T08:06:38;99389.78;;;10.65;68.59
29215;BME280;16252;49.816;7.964;2023-01-13T08:09:03;99383.97;;;10.59;68.54
29215;BME280;16252;49.816;7.964;2023-01-13T08:11:28;99422.41;;;10.79;68.64
29215;BME280;16252;49.816;7.964;2023-01-13T08:13:55;99434.56;;;10.93;69.07
29215;BME280;16252;49.816;7.964;2023-01-13T08:16:21;99407.06;;;10.81;68.68
29215;BME280;16252;49.816;7.964;2023-01-13T08:18:47;99393.63;;;10.72;68.69
29215;BME280;16252;49.816;7.964;2023-01-13T08:21:14;99396.47;;;10.80;68.64
29215;BME280;16252;49.816;7.964;2023-01-13T08:23:40;99440.03;;;11.13;68.38
29215;BME280;16252;49.816;7.964;2023-01-13T08:26:12;99444.16;;;11.17;68.48
29215;BME280;16252;49.816;7.964;2023-01-13T08:28:38;99442.88;;;11.21;68.25
29215;BME280;16252;49.816;7.964;2023-01-13T08:31:09;99394.03;;;10.98;68.01
29215;BME280;16252;49.816;7.964;2023-01-13T08:33:35;99442.59;;;11.24;67.96
29215;BME280;16252;49.816;7.964;2023-01-13T08:36:05;99444.47;;;11.33;67.99
29215;BME280;16252;49.816;7.964;2023-01-13T08:38:32;99438.28;;;11.33;67.70
29215;BME280;16252;49.816;7.964;2023-01-13T08:40:58;99415.66;;;11.16;67.78
29215;BME280;16252;49.816;7.964;2023-01-13T08:43:24;99454.78;;;11.38;67.52
29215;BME280;16252;49.816;7.964;2023-01-13T08:45:57;99406.78;;;11.15;67.55
29215;BME280;16252;49.816;7.964;2023-01-13T08:48:23;99461.53;;;11.42;67.20
29215;BME280;16252;49.816;7.964;2023-01-13T08:50:48;99443.31;;;11.26;67.30
29215;BME280;16252;49.816;7.964;2023-01-13T08:53:14;99412.41;;;11.12;67.01
29215;BME280;16252;49.816;7.964;2023-01-13T08:55:39;99406.63;;;11.07;66.86
29215;BME280;16252;49.816;7.964;2023-01-13T08:58:04;99463.66;;;11.38;66.86
29215;BME280;16252;49.816;7.964;2023-01-13T09:00:30;99472.13;;;11.43;66.73
29215;BME280;16252;49.816;7.964;2023-01-13T09:02:55;99470.06;;;11.47;66.70
29215;BME280;16252;49.816;7.964;2023-01-13T09:05:20;99435.44;;;11.24;66.67
29215;BME280;16252;49.816;7.964;2023-01-13T09:07:46;99481.34;;;11.50;66.73
29215;BME280;16252;49.816;7.964;2023-01-13T09:10:11;99430.75;;;11.17;66.98
29215;BME280;16252;49.816;7.964;2023-01-13T09:12:36;99468.50;;;11.44;66.91
29215;BME280;16252;49.816;7.964;2023-01-13T09:15:20;99490.09;;;11.53;67.36
29215;BME280;16252;49.816;7.964;2023-01-13T09:17:46;99451.38;;;11.36;66.96
29215;BME280;16252;49.816;7.964;2023-01-13T09:20:12;99452.56;;;11.43;66.80
29215;BME280;16252;49.816;7.964;2023-01-13T09:22:37;99479.94;;;11.56;66.64
29215;BME280;16252;49.816;7.964;2023-01-13T09:25:05;99504.94;;;11.66;66.50
29215;BME280;16252;49.816;7.964;2023-01-13T09:27:30;99470.50;;;11.52;65.85
29215;BME280;16252;49.816;7.964;2023-01-13T09:29:55;99508.22;;;11.80;65.91
29215;BME280;16252;49.816;7.964;2023-01-13T09:32:21;99507.69;;;11.86;65.66
29215;BME280;16252;49.816;7.964;2023-01-13T09:34:46;99506.13;;;11.83;65.21
29215;BME280;16252;49.816;7.964;2023-01-13T09:37:33;99505.47;;;11.91;65.25
29215;BME280;16252;49.816;7.964;2023-01-13T09:39:59;99527.91;;;12.00;65.05
29215;BME280;16252;49.816;7.964;2023-01-13T09:42:48;99524.56;;;12.17;64.51
29215;BME280;16252;49.816;7.964;2023-01-13T09:45:41;99500.00;;;12.12;64.32
29215;BME280;16252;49.816;7.964;2023-01-13T09:48:30;99511.88;;;12.29;64.33
29215;BME280;16252;49.816;7.964;2023-01-13T09:51:06;99496.31;;;12.23;63.68
29215;BME280;16252;49.816;7.964;2023-01-13T09:53:51;99502.53;;;12.43;63.74
29215;BME280;16252;49.816;7.964;2023-01-13T09:56:21;99466.97;;;12.21;63.57
29215;BME280;16252;49.816;7.964;2023-01-13T09:58:46;99478.41;;;12.43;62.82
29215;BME280;16252;49.816;7.964;2023-01-13T10:01:33;99516.81;;;12.72;62.77
29215;BME280;16252;49.816;7.964;2023-01-13T10:04:09;99497.06;;;12.64;62.71
29215;BME280;16252;49.816;7.964;2023-01-13T10:06:41;99518.78;;;12.80;62.12
29215;BME280;16252;49.816;7.964;2023-01-13T10:09:13;99476.00;;;12.49;62.17
29215;BME280;16252;49.816;7.964;2023-01-13T10:11:44;99505.06;;;12.73;62.12
29215;BME280;16252;49.816;7.964;2023-01-13T10:17:44;99501.13;;;12.77;62.12
29215;BME280;16252;49.816;7.964;2023-01-13T10:20:16;99537.44;;;12.91;61.51
29215;BME280;16252;49.816;7.964;2023-01-13T10:25:43;99511.53;;;13.00;62.32
29215;BME280;16252;49.816;7.964;2023-01-13T10:28:14;99494.03;;;12.86;61.45
29215;BME280;16252;49.816;7.964;2023-01-13T10:30:45;99474.41;;;12.76;61.21
29215;BME280;16252;49.816;7.964;2023-01-13T10:33:16;99518.16;;;13.06;60.96
29215;BME280;16252;49.816;7.964;2023-01-13T10:35:59;99511.38;;;13.11;60.76
29215;BME280;16252;49.816;7.964;2023-01-13T10:38:26;99520.44;;;13.10;60.63
29215;BME280;16252;49.816;7.964;2023-01-13T10:41:00;99531.44;;;13.17;60.14
29215;BME280;16252;49.816;7.964;2023-01-13T10:43:27;99518.03;;;13.07;60.12
29215;BME280;16252;49.816;7.964;2023-01-13T10:46:08;99539.63;;;13.25;59.38
29215;BME280;16252;49.816;7.964;2023-01-13T10:48:40;99522.97;;;13.12;59.42
29215;BME280;16252;49.816;7.964;2023-01-13T10:51:10;99538.34;;;13.29;59.60
29215;BME280;16252;49.816;7.964;2023-01-13T10:53:50;99518.69;;;13.19;59.71
29215;BME280;16252;49.816;7.964;2023-01-13T10:56:18;99540.78;;;13.32;58.53
29215;BME280;16252;49.816;7.964;2023-01-13T10:58:43;99504.44;;;13.09;58.74
29215;BME280;16252;49.816;7.964;2023-01-13T11:01:18;99545.41;;;13.40;59.22
29215;BME280;16252;49.816;7.964;2023-01-13T11:03:44;99548.63;;;13.43;58.60
29215;BME280;16252;49.816;7.964;2023-01-13T11:08:48;99556.69;;;13.53;58.08
29215;BME280;16252;49.816;7.964;2023-01-13T11:14:08;99535.91;;;13.46;58.01
29215;BME280;16252;49.816;7.964;2023-01-13T11:16:59;99507.94;;;13.38;58.26
29215;BME280;16252;49.816;7.964;2023-01-13T11:19:27;99554.09;;;13.61;57.70
29215;BME280;16252;49.816;7.964;2023-01-13T11:22:09;99528.97;;;13.53;58.37
29215;BME280;16252;49.816;7.964;2023-01-13T11:24:43;99494.38;;;13.30;57.68
29215;BME280;16252;49.816;7.964;2023-01-13T11:33:01;99524.75;;;13.40;57.92
29215;BME280;16252;49.816;7.964;2023-01-13T11:35:30;99555.84;;;13.53;57.60
29215;BME280;16252;49.816;7.964;2023-01-13T11:38:05;99557.69;;;13.52;57.75
29215;BME280;16252;49.816;7.964;2023-01-13T11:40:37;99529.44;;;13.29;56.87
29215;BME280;16252;49.816;7.964;2023-01-13T11:43:18;99549.94;;;13.39;58.29
29215;BME280;16252;49.816;7.964;2023-01-13T11:45:52;99560.81;;;13.48;57.11
29215;BME280;16252;49.816;7.964;2023-01-13T11:48:22;99538.78;;;13.25;57.79
29215;BME280;16252;49.816;7.964;2023-01-13T12:04:45;99566.06;;;13.20;56.64
29215;BME280;16252;49.816;7.964;2023-01-13T12:10:19;99540.19;;;13.19;58.02
29215;BME280;16252;49.816;7.964;2023-01-13T12:13:02;99501.22;;;12.95;56.00
29215;BME280;16252;49.816;7.964;2023-01-13T12:18:31;99560.00;;;13.28;57.84
29215;BME280;16252;49.816;7.964;2023-01-13T12:26:09;99557.31;;;13.18;55.98
29215;BME280;16252;49.816;7.964;2023-01-13T12:28:51;99530.63;;;13.07;56.74
29215;BME280;16252;49.816;7.964;2023-01-13T12:31:18;99509.16;;;12.87;56.41
29215;BME280;16252;49.816;7.964;2023-01-13T12:33:53;99531.47;;;13.07;56.65
29215;BME280;16252;49.816;7.964;2023-01-13T12:47:39;99538.69;;;13.07;56.70
29215;BME280;16252;49.816;7.964;2023-01-13T12:52:54;99530.75;;;13.15;56.86
29215;BME280;16252;49.816;7.964;2023-01-13T12:55:26;99554.63;;;13.18;56.01
29215;BME280;16252;49.816;7.964;2023-01-13T12:58:13;99531.72;;;13.14;57.34
29215;BME280;16252;49.816;7.964;2023-01-13T13:08:41;99556.06;;;13.12;56.35
29215;BME280;16252;49.816;7.964;2023-01-13T13:14:01;99585.59;;;13.12;55.62
29215;BME280;16252;49.816;7.964;2023-01-13T13:24:30;99577.13;;;12.97;55.59
29215;BME280;16252;49.816;7.964;2023-01-13T13:26:56;99580.53;;;12.90;55.44
29215;BME280;16252;49.816;7.964;2023-01-13T13:29:29;99601.59;;;13.04;55.78
29215;BME280;16252;49.816;7.964;2023-01-13T13:34:47;99586.59;;;12.82;55.90
29215;BME280;16252;49.816;7.964;2023-01-13T13:40:23;99578.13;;;12.67;55.67
29215;BME280;16252;49.816;7.964;2023-01-13T13:43:11;99618.81;;;12.82;55.72
29215;BME280;16252;49.816;7.964;2023-01-13T13:45:56;99564.00;;;12.46;56.07
29215;BME280;16252;49.816;7.964;2023-01-13T13:48:50;99626.56;;;12.75;56.59
29215;BME280;16252;49.816;7.964;2023-01-13T13:51:36;99601.28;;;12.58;57.21
29215;BME280;16252;49.816;7.964;2023-01-13T13:54:04;99539.66;;;12.08;57.12
29215;BME280;16252;49.816;7.964;2023-01-13T13:58:57;99619.31;;;12.37;58.11
29215;BME280;16252;49.816;7.964;2023-01-13T14:01:25;99668.81;;;12.64;58.81
29215;BME280;16252;49.816;7.964;2023-01-13T14:06:33;99641.91;;;12.34;59.41
29215;BME280;16252;49.816;7.964;2023-01-13T14:09:01;99653.38;;;12.46;59.95
29215;BME280;16252;49.816;7.964;2023-01-13T14:11:29;99662.94;;;12.29;59.72
29215;BME280;16252;49.816;7.964;2023-01-13T14:14:10;99671.41;;;12.34;60.43
29215;BME280;16252;49.816;7.964;2023-01-13T14:16:37;99674.34;;;12.22;60.70
29215;BME280;16252;49.816;7.964;2023-01-13T14:19:04;99651.50;;;11.97;60.59
29215;BME280;16252;49.816;7.964;2023-01-13T14:21:30;99675.38;;;12.00;60.65
29215;BME280;16252;49.816;7.964;2023-01-13T14:23:58;99672.50;;;11.91;60.57
29215;BME280;16252;49.816;7.964;2023-01-13T14:26:26;99671.00;;;11.78;60.84
29215;BME280;16252;49.816;7.964;2023-01-13T14:28:53;99661.63;;;11.62;60.59
29215;BME280;16252;49.816;7.964;2023-01-13T14:31:19;99658.03;;;11.52;60.51
29215;BME280;16252;49.816;7.964;2023-01-13T14:33:47;99676.53;;;11.55;60.76
29215;BME280;16252;49.816;7.964;2023-01-13T14:36:23;99690.38;;;11.60;60.68
29215;BME280;16252;49.816;7.964;2023-01-13T14:46:42;99727.34;;;11.45;60.84
29215;BME280;16252;49.816;7.964;2023-01-13T14:51:52;99686.81;;;11.39;61.03
29215;BME280;16252;49.816;7.964;2023-01-13T14:54:47;99707.69;;;11.56;60.71
29215;BME280;16252;49.816;7.964;2023-01-13T14:57:26;99720.56;;;11.62;60.79
29215;BME280;16252;49.816;7.964;2023-01-13T15:04:55;99726.44;;;11.56;60.32
29215;BME280;16252;49.816;7.964;2023-01-13T15:07:30;99728.63;;;11.62;60.43
29215;BME280;16252;49.816;7.964;2023-01-13T15:10:00;99697.34;;;11.52;60.16
29215;BME280;16252;49.816;7.964;2023-01-13T15:12:33;99739.06;;;11.65;60.04
29215;BME280;16252;49.816;7.964;2023-01-13T15:15:04;99684.28;;;11.37;59.99
29215;BME280;16252;49.816;7.964;2023-01-13T15:17:31;99718.22;;;11.48;59.96
29215;BME280;16252;49.816;7.964;2023-01-13T15:19:56;99718.31;;;11.46;59.96
29215;BME280;16252;49.816;7.964;2023-01-13T15:22:22;99720.44;;;11.43;59.97
29215;BME280;16252;49.816;7.964;2023-01-13T15:24:47;99760.03;;;11.60;60.12
29215;BME280;16252;49.816;7.964;2023-01-13T15:27:19;99763.03;;;11.67;60.42
29215;BME280;16252;49.816;7.964;2023-01-13T15:29:46;99720.47;;;11.32;60.69
29215;BME280;16252;49.816;7.964;2023-01-13T15:32:19;99765.78;;;11.56;60.37
29215;BME280;16252;49.816;7.964;2023-01-13T15:34:46;99784.28;;;11.59;60.43